Peru, NE

2:46 PM CDT on August 30, 2014 (GMT -0500)
The Nincehelser Farm | Change Station
CLOSE
Current Station
Personal Weather Station
Location: Peru, NE
Elevation: 1061 ft
Nearby Weather Stations

Elev 1061 ft 40.50 °N, 95.78 °W | Updated 11 minutes ago

Clear
Clear
84.7 °F
Feels Like 88 °F
N
2.7
Wind Variable Wind from NE

Today
High -- | Low -- °F
--% Chance of Precip.
Yesterday
High -- | Low -- °F
Precip. -- in
6:48 AM 7:58 PM
Waxing Crescent, 24% visible
Pressure 29.93 in
Visibility 10.0 miles
Clouds Clear
Heat Index 88 °F
Dew Point 69 °F
Humidity 59%
Rainfall 0.00 in
Snow Depth Not available.
UV 9 out of 12
Pollen 9.10 out of 12
Air Quality Not available.
Flu Activity Not available.
METAR KAFK 301915Z AUTO 30005KT 10SM CLR 27/16 A2993 RMK AO2 T02720157

More Conditions Fewer Conditions

Pressure 29.93 in
Visibility 10.0 miles
Clouds Clear
Heat Index 88 °F
Dew Point 69 °F
Humidity 59%
Rainfall 0.00 in
Snow Depth Not available.
UV 9 out of 12
Pollen 9.10 out of 12
Air Quality Not available.
Flu Activity Not available.
METAR KAFK 301915Z AUTO 30005KT 10SM CLR 27/16 A2993 RMK AO2 T02720157

More Conditions Fewer Conditions

10-Day Weather Forecast

Almanac

Astronomy

Aug. 30, 2014 Rise Set
Actual Time 6:48 AM CDT 7:58 PM CDT
Civil Twilight 6:20 AM CDT 8:26 PM CDT
Nautical Twilight 5:46 AM CDT 8:59 PM CDT
Astronomical Twilight 5:11 AM CDT 9:34 PM CDT
Moon 11:38 AM CDT 10:31 PM CDT
Length of Visible Light 14h 05m
Length of Day
13h 09m
Tomorrow will be 2m 33s shorter.
Waxing Crescent, 24% of the Moon is Illuminated
Today
Waxing Crescent
Sep 2
First Quarter
Sep 8
Full
Sep 15
Last Quarter
Sep 24
New

Today's Extremes

State Highs State Lows

Community

WunderPhotos

Upload Photos

1,748,614 photos uploaded!

WunderBlogs® & News

Nearby

Snow Depth

Station Depth Elevation
No new snow has been reported.

Earthquake Activity

City Distance Mag. Time & Date
No recent earthquake activity has been reported nearby.
Minimum magnitude displayed is 2.5.

Coastal Water Temperatures

Place Temperature
No Stations Reporting

Nearby Weather Stations